createdAt,value
2023-11-07T00:05:00.911Z,62.14
2023-11-07T00:10:08.476Z,62.11
2023-11-07T00:15:15.538Z,62.14
2023-11-07T00:20:22.642Z,62.05
2023-11-07T00:25:29.596Z,62.29
2023-11-07T00:30:36.618Z,62.02
2023-11-07T00:35:44.304Z,62.04
2023-11-07T00:40:51.332Z,62.13
2023-11-07T00:45:58.106Z,62.03
2023-11-07T00:51:05.024Z,62.15
2023-11-07T00:56:12.138Z,61.87
2023-11-07T01:01:19.510Z,62.09
2023-11-07T01:06:26.489Z,61.98
2023-11-07T01:11:33.388Z,62.11
2023-11-07T01:16:40.128Z,61.88
2023-11-07T01:21:47.307Z,61.93
2023-11-07T01:26:54.518Z,62.00
2023-11-07T01:32:01.497Z,61.83
2023-11-07T01:37:08.678Z,61.96
2023-11-07T01:42:15.539Z,62.24
2023-11-07T01:47:24.827Z,62.07
2023-11-07T01:52:31.990Z,62.03
2023-11-07T01:57:40.380Z,62.14
2023-11-07T02:02:47.395Z,62.00
2023-11-07T02:07:54.140Z,61.97
2023-11-07T02:13:00.929Z,62.18
2023-11-07T02:18:08.119Z,62.11
2023-11-07T02:23:15.907Z,62.19
2023-11-07T02:28:23.146Z,62.19
2023-11-07T02:33:30.353Z,62.05
2023-11-07T02:38:37.316Z,61.73
2023-11-07T02:43:44.208Z,62.06
2023-11-07T02:48:51.348Z,62.08
2023-11-07T02:53:58.233Z,61.94
2023-11-07T02:59:05.526Z,62.07
2023-11-07T03:04:13.325Z,62.03
2023-11-07T03:09:20.218Z,62.19
2023-11-07T03:14:26.820Z,61.92
2023-11-07T03:19:33.696Z,62.00
2023-11-07T03:24:40.381Z,61.95
2023-11-07T03:29:46.996Z,61.94
2023-11-07T03:34:54.137Z,61.96
2023-11-07T03:40:01.637Z,62.06
2023-11-07T03:45:09.746Z,61.94
2023-11-07T03:50:16.853Z,62.02
2023-11-07T03:55:23.719Z,61.98
2023-11-07T04:00:30.702Z,62.04
2023-11-07T04:05:37.526Z,62.09
2023-11-07T04:10:44.357Z,61.84
2023-11-07T04:15:51.240Z,61.89
2023-11-07T04:20:58.888Z,61.78
2023-11-07T04:26:06.112Z,61.96
2023-11-07T04:31:12.747Z,61.87
2023-11-07T04:36:19.477Z,61.76
2023-11-07T04:41:26.563Z,61.99
2023-11-07T04:46:33.817Z,62.14
2023-11-07T04:51:40.840Z,61.79
2023-11-07T04:56:48.029Z,62.05
2023-11-07T05:01:55.711Z,61.98
2023-11-07T05:07:02.648Z,61.92
2023-11-07T05:12:12.015Z,62.04
2023-11-07T05:17:19.637Z,61.97
2023-11-07T05:22:26.649Z,62.08
2023-11-07T05:27:33.346Z,61.78
2023-11-07T05:32:40.384Z,61.80
2023-11-07T05:37:47.730Z,62.07
2023-11-07T05:42:54.792Z,61.95
2023-11-07T05:48:01.902Z,61.90
2023-11-07T05:53:09.986Z,61.85
2023-11-07T05:58:17.005Z,61.86
2023-11-07T06:03:23.862Z,61.91
2023-11-07T06:08:30.853Z,61.93
2023-11-07T06:13:37.796Z,61.89
2023-11-07T06:18:44.751Z,62.00
2023-11-07T06:23:51.633Z,61.86
2023-11-07T06:28:58.173Z,62.09
2023-11-07T06:34:06.554Z,62.00
2023-11-07T06:39:14.134Z,61.69
2023-11-07T06:44:21.196Z,61.84
2023-11-07T06:49:28.504Z,61.75
2023-11-07T06:54:35.625Z,61.90
2023-11-07T06:59:43.474Z,61.88
2023-11-07T07:04:51.357Z,61.98
2023-11-07T07:09:59.637Z,61.70
2023-11-07T07:15:07.756Z,61.71
2023-11-07T07:20:15.352Z,61.71
2023-11-07T07:25:28.476Z,61.65
2023-11-07T07:30:38.994Z,61.80
2023-11-07T07:35:47.129Z,61.80
2023-11-07T07:40:53.967Z,61.80
2023-11-07T07:46:00.899Z,61.68
2023-11-07T07:51:08.192Z,61.63
2023-11-07T07:56:15.617Z,61.95
2023-11-07T08:01:23.547Z,61.71
2023-11-07T08:06:31.953Z,61.87
2023-11-07T08:11:40.356Z,61.79
2023-11-07T08:16:47.379Z,61.80
2023-11-07T08:21:54.963Z,61.86
2023-11-07T08:27:01.992Z,61.94
2023-11-07T08:32:14.077Z,61.95
2023-11-07T08:37:21.028Z,61.82
2023-11-07T08:42:27.999Z,61.98
2023-11-07T08:47:34.674Z,61.79
2023-11-07T08:52:41.537Z,61.66
2023-11-07T08:57:49.897Z,61.62
2023-11-07T09:02:56.838Z,61.74
2023-11-07T09:08:06.100Z,61.52
2023-11-07T09:13:13.546Z,61.91
2023-11-07T09:18:20.819Z,61.63
2023-11-07T09:23:28.275Z,61.81
2023-11-07T09:28:35.447Z,61.72
2023-11-07T09:33:42.530Z,61.64
2023-11-07T09:38:53.301Z,61.73
2023-11-07T09:44:02.400Z,61.74
2023-11-07T09:49:09.437Z,61.55
2023-11-07T09:54:17.557Z,61.65
2023-11-07T09:59:32.049Z,61.68
2023-11-07T10:04:39.389Z,61.70
2023-11-07T10:09:48.531Z,61.76
2023-11-07T10:14:58.914Z,61.80
2023-11-07T10:20:09.543Z,61.72
2023-11-07T10:25:29.783Z,61.71
2023-11-07T10:30:46.063Z,61.47
2023-11-07T10:35:57.441Z,61.72
2023-11-07T10:41:04.369Z,61.71
2023-11-07T10:46:11.734Z,61.60
2023-11-07T10:51:18.471Z,61.91
2023-11-07T10:56:25.707Z,61.85
2023-11-07T11:01:33.346Z,61.65
2023-11-07T11:06:40.654Z,61.76
2023-11-07T11:11:50.733Z,61.73
2023-11-07T11:17:01.168Z,61.65
2023-11-07T11:22:13.434Z,61.59
2023-11-07T11:27:21.651Z,61.60
2023-11-07T11:32:29.896Z,61.56
2023-11-07T11:37:50.218Z,61.82
2023-11-07T11:43:09.597Z,61.57
2023-11-07T11:48:16.976Z,61.60
2023-11-07T11:53:36.496Z,61.77
2023-11-07T11:59:03.458Z,61.49
2023-11-07T12:04:27.685Z,61.68
2023-11-07T12:09:34.808Z,61.56
2023-11-07T12:14:53.028Z,61.68
2023-11-07T12:20:08.294Z,61.70
2023-11-07T12:25:18.907Z,61.78
2023-11-07T12:30:27.720Z,61.79
2023-11-07T12:35:34.766Z,61.64
2023-11-07T12:40:42.521Z,61.65
2023-11-07T12:45:49.606Z,61.70
2023-11-07T12:50:56.428Z,61.87
2023-11-07T12:56:05.177Z,61.69
2023-11-07T13:01:12.820Z,61.72
2023-11-07T13:06:21.878Z,61.80
2023-11-07T13:11:32.477Z,61.85
2023-11-07T13:16:41.138Z,61.63
2023-11-07T13:21:49.949Z,61.67
2023-11-07T13:26:57.033Z,61.74
2023-11-07T13:32:04.598Z,61.80
2023-11-07T13:37:11.500Z,61.88
2023-11-07T13:42:18.633Z,61.79
2023-11-07T13:47:25.941Z,62.02
2023-11-07T13:52:32.658Z,61.85
2023-11-07T13:57:39.546Z,61.64
2023-11-07T14:02:46.316Z,61.57
2023-11-07T14:07:53.488Z,61.71
2023-11-07T14:13:00.279Z,61.86
2023-11-07T14:18:15.708Z,61.80
2023-11-07T14:23:28.309Z,61.66
2023-11-07T14:28:38.954Z,61.77
2023-11-07T14:33:49.390Z,61.87
2023-11-07T14:38:56.532Z,61.75
2023-11-07T14:44:03.708Z,61.77
2023-11-07T14:49:11.982Z,61.63
2023-11-07T14:54:19.062Z,61.72
2023-11-07T14:59:26.198Z,61.76
2023-11-07T15:04:33.525Z,61.92
2023-11-07T15:09:40.170Z,61.86
2023-11-07T15:14:47.384Z,61.87
2023-11-07T15:19:54.590Z,61.94
2023-11-07T15:25:01.408Z,61.79
2023-11-07T15:30:11.840Z,61.72
2023-11-07T15:35:19.952Z,61.87
2023-11-07T15:40:26.934Z,61.80
2023-11-07T15:45:34.200Z,61.82
2023-11-07T15:50:43.075Z,61.93
2023-11-07T15:55:50.008Z,61.83
2023-11-07T16:00:56.966Z,61.82
2023-11-07T16:06:04.769Z,61.79
2023-11-07T16:11:11.610Z,62.06
2023-11-07T16:16:18.554Z,61.93
2023-11-07T16:21:26.009Z,61.76
2023-11-07T16:26:39.670Z,61.72
2023-11-07T16:31:46.747Z,61.80
2023-11-07T16:36:53.739Z,61.71
2023-11-07T16:42:00.716Z,61.81
2023-11-07T16:47:11.447Z,61.99
2023-11-07T16:52:19.001Z,62.12
2023-11-07T16:57:26.126Z,61.83
2023-11-07T17:02:33.186Z,61.97
2023-11-07T17:07:40.896Z,61.75
2023-11-07T17:12:48.325Z,62.11
2023-11-07T17:17:56.460Z,61.93
2023-11-07T17:23:04.786Z,62.07
2023-11-07T17:28:12.357Z,61.82
2023-11-07T17:33:19.647Z,62.17
2023-11-07T17:38:26.797Z,61.76
2023-11-07T17:43:43.579Z,62.21
2023-11-07T17:48:52.376Z,62.13
2023-11-07T17:54:00.091Z,61.97
2023-11-07T17:59:08.602Z,61.90
2023-11-07T18:04:15.482Z,61.83
2023-11-07T18:09:22.325Z,62.06
2023-11-07T18:14:29.480Z,62.08
2023-11-07T18:19:36.667Z,62.10
2023-11-07T18:24:45.288Z,61.92
2023-11-07T18:29:52.083Z,62.19
2023-11-07T18:34:59.483Z,62.25
2023-11-07T18:40:07.688Z,62.23
2023-11-07T18:45:14.735Z,62.09
2023-11-07T18:50:21.968Z,62.20
2023-11-07T18:55:29.114Z,61.97
2023-11-07T19:00:40.253Z,62.08
2023-11-07T19:05:47.358Z,62.12
2023-11-07T19:10:54.556Z,61.98
2023-11-07T19:16:03.798Z,62.17
2023-11-07T19:21:12.354Z,62.09
2023-11-07T19:26:21.309Z,62.15
2023-11-07T19:31:28.500Z,61.95
2023-11-07T19:36:40.544Z,62.18
2023-11-07T19:41:48.557Z,62.10
2023-11-07T19:46:56.178Z,62.10
2023-11-07T19:52:04.278Z,62.16
2023-11-07T19:57:12.169Z,61.99
2023-11-07T20:02:22.668Z,62.11
2023-11-07T20:07:29.796Z,62.15
2023-11-07T20:12:36.875Z,62.27
2023-11-07T20:17:43.702Z,62.22
2023-11-07T20:22:50.685Z,61.99
2023-11-07T20:27:57.548Z,62.14
2023-11-07T20:33:06.603Z,62.33
2023-11-07T20:38:14.248Z,62.08
2023-11-07T20:43:21.247Z,62.00
2023-11-07T20:48:28.265Z,62.10
2023-11-07T20:53:35.884Z,62.26
2023-11-07T20:58:43.553Z,62.08
2023-11-07T21:03:51.020Z,61.99
2023-11-07T21:08:58.540Z,62.11
2023-11-07T21:14:05.828Z,62.04
2023-11-07T21:19:14.218Z,62.24
2023-11-07T21:24:22.003Z,62.10
2023-11-07T21:29:28.776Z,62.03
2023-11-07T21:34:35.937Z,62.14
2023-11-07T21:39:43.051Z,62.19
2023-11-07T21:44:49.922Z,62.42
2023-11-07T21:49:56.877Z,62.29
2023-11-07T21:55:04.091Z,62.17
2023-11-07T22:00:16.560Z,62.28
2023-11-07T22:05:24.029Z,62.09
2023-11-07T22:10:31.456Z,62.18
2023-11-07T22:15:38.565Z,62.34
2023-11-07T22:20:45.702Z,62.38
2023-11-07T22:25:52.849Z,62.27
2023-11-07T22:30:59.450Z,62.13
2023-11-07T22:36:07.217Z,62.05
2023-11-07T22:41:14.556Z,62.20
2023-11-07T22:46:21.301Z,62.25
2023-11-07T22:51:28.374Z,62.33
2023-11-07T22:56:36.404Z,62.17
2023-11-07T23:01:43.487Z,61.99
2023-11-07T23:06:50.669Z,62.05
2023-11-07T23:12:00.079Z,62.16
2023-11-07T23:17:07.778Z,62.09
2023-11-07T23:22:14.809Z,62.11
2023-11-07T23:27:21.722Z,62.21
2023-11-07T23:32:28.465Z,62.26
2023-11-07T23:37:35.643Z,62.19
2023-11-07T23:42:43.638Z,62.21
2023-11-07T23:47:50.403Z,62.23
2023-11-07T23:52:57.081Z,62.15
2023-11-07T23:58:03.860Z,62.29
